Time;durP1;ratioP1;P1;durP2;ratioP2;P2;SDS_P1;SDS_P2;PMS_P1;PMS_P2;Temp;Humidity;BMP_temperature;BMP_pressure;BME280_temperature;BME280_humidity;BME280_pressure;Samples;Min_cycle;Max_cycle;Signal;HPM_P1;HPM_P2
2023/09/04 00:00:05;;;;;;;5.50;2.75;;;17.40;99.90;;;;;;5029860;28;20201;-71
2023/09/04 00:02:31;;;;;;;3.33;2.53;;;17.30;99.90;;;;;;5028982;28;20200;-70
2023/09/04 00:04:56;;;;;;;2.35;2.08;;;17.40;99.90;;;;;;5045529;28;20569;-70
2023/09/04 00:07:22;;;;;;;3.03;2.40;;;17.40;99.90;;;;;;5041978;28;20214;-71
2023/09/04 00:09:48;;;;;;;3.28;2.50;;;17.40;99.90;;;;;;5051783;28;20183;-70
2023/09/04 00:12:13;;;;;;;5.22;2.60;;;17.40;99.90;;;;;;5034310;28;20208;-71
2023/09/04 00:14:39;;;;;;;4.40;2.50;;;17.40;99.90;;;;;;5025806;28;20200;-70
2023/09/04 00:17:05;;;;;;;3.88;2.40;;;17.30;99.90;;;;;;5043756;28;20269;-71
2023/09/04 00:19:32;;;;;;;3.33;2.35;;;17.30;99.90;;;;;;5044812;28;20207;-71
2023/09/04 00:21:58;;;;;;;3.35;2.47;;;17.20;99.90;;;;;;5041979;28;20230;-71
2023/09/04 00:24:23;;;;;;;4.78;2.28;;;17.20;99.90;;;;;;5039212;28;20206;-71
2023/09/04 00:26:49;;;;;;;4.57;2.53;;;17.10;99.90;;;;;;5055807;28;20203;-70
2023/09/04 00:29:15;;;;;;;5.50;2.20;;;17.00;99.90;;;;;;5055272;28;20205;-71
2023/09/04 00:31:40;;;;;;;5.63;2.53;;;17.10;99.90;;;;;;5047375;28;20214;-70
2023/09/04 00:34:06;;;;;;;2.70;2.03;;;17.10;99.90;;;;;;5052474;28;20593;-71
2023/09/04 00:36:32;;;;;;;2.55;1.90;;;17.00;99.90;;;;;;5050122;28;20176;-71
2023/09/04 00:38:57;;;;;;;3.08;2.22;;;17.10;99.90;;;;;;5048769;28;20206;-71
2023/09/04 00:41:23;;;;;;;3.38;2.63;;;17.10;99.90;;;;;;5048083;28;20321;-71
2023/09/04 00:43:48;;;;;;;3.65;2.22;;;17.00;99.90;;;;;;5046289;28;20265;-68
2023/09/04 00:46:14;;;;;;;3.97;2.03;;;17.00;99.90;;;;;;5034825;28;20543;-72
2023/09/04 00:48:40;;;;;;;3.78;2.28;;;17.00;99.90;;;;;;5032216;28;20208;-71
2023/09/04 00:51:07;;;;;;;4.82;2.33;;;17.00;99.90;;;;;;5032667;28;20215;-71
2023/09/04 00:53:35;;;;;;;5.70;2.30;;;17.00;99.90;;;;;;5042286;28;20224;-70
2023/09/04 00:56:02;;;;;;;3.97;2.55;;;17.00;99.90;;;;;;5040910;28;20216;-71
2023/09/04 00:58:28;;;;;;;6.07;2.63;;;17.00;99.90;;;;;;5044873;28;20215;-70
2023/09/04 01:00:54;;;;;;;3.75;2.78;;;16.90;99.90;;;;;;5050776;28;20578;-71
2023/09/04 01:03:21;;;;;;;3.53;2.40;;;17.00;99.90;;;;;;5031899;28;20235;-71
2023/09/04 01:05:46;;;;;;;2.80;2.33;;;17.00;99.90;;;;;;5051541;28;20204;-71
2023/09/04 01:08:13;;;;;;;3.63;2.58;;;16.90;99.90;;;;;;5056381;28;20289;-71
2023/09/04 01:11:08;;;;;;;3.28;1.85;;;16.90;99.90;;;;;;5046574;28;20261;-71
2023/09/04 01:13:55;;;;;;;3.70;2.25;;;16.80;99.90;;;;;;5023929;28;20216;-71
2023/09/04 01:16:22;;;;;;;3.67;2.53;;;16.80;99.90;;;;;;5041426;28;20211;-71
2023/09/04 01:18:48;;;;;;;3.13;2.30;;;16.90;99.90;;;;;;5046474;28;20226;-70
2023/09/04 01:21:14;;;;;;;4.80;2.30;;;16.90;99.90;;;;;;5049289;28;20214;-71
2023/09/04 01:23:40;;;;;;;5.07;2.35;;;16.90;99.90;;;;;;5045621;28;20215;-72
2023/09/04 01:26:17;;;;;;;3.97;1.90;;;16.80;99.90;;;;;;5027237;28;20212;-71
2023/09/04 01:28:49;;;;;;;3.63;2.60;;;16.90;99.90;;;;;;5080459;23;20277;-69
2023/09/04 01:31:15;;;;;;;2.40;1.90;;;16.90;99.90;;;;;;5089363;28;20720;-69
2023/09/04 01:33:46;;;;;;;2.50;1.90;;;16.90;99.90;;;;;;5084600;28;20182;-68
2023/09/04 01:36:14;;;;;;;3.55;2.42;;;16.80;99.90;;;;;;5091260;28;20315;-68
2023/09/04 01:38:42;;;;;;;2.85;2.00;;;16.70;99.90;;;;;;5076149;28;20202;-68
2023/09/04 01:41:08;;;;;;;2.83;2.05;;;16.80;99.90;;;;;;5087819;28;20708;-68
2023/09/04 01:43:33;;;;;;;2.45;1.95;;;16.60;99.90;;;;;;5084670;28;20256;-68
2023/09/04 01:45:59;;;;;;;2.75;1.80;;;16.60;99.90;;;;;;5085475;28;20175;-68
2023/09/04 01:48:25;;;;;;;3.70;1.98;;;16.60;99.90;;;;;;5083899;28;20199;-68
2023/09/04 01:50:50;;;;;;;2.00;1.80;;;16.50;99.90;;;;;;5084085;28;20206;-67
2023/09/04 01:53:16;;;;;;;3.33;2.45;;;16.50;99.90;;;;;;5080248;28;20286;-68
2023/09/04 01:55:42;;;;;;;5.47;2.22;;;16.50;99.90;;;;;;5078156;28;20207;-68
2023/09/04 01:58:08;;;;;;;2.58;2.38;;;16.50;99.90;;;;;;5081748;28;20209;-68
2023/09/04 02:00:33;;;;;;;3.55;2.13;;;16.50;99.90;;;;;;5085960;28;20224;-68
2023/09/04 02:02:59;;;;;;;3.70;1.90;;;16.50;99.90;;;;;;5083767;28;20199;-67
2023/09/04 02:05:24;;;;;;;4.32;2.30;;;16.40;99.90;;;;;;5068820;28;20217;-67
2023/09/04 02:07:50;;;;;;;4.20;2.20;;;16.40;99.90;;;;;;5061781;28;20260;-67
2023/09/04 02:10:15;;;;;;;4.72;2.47;;;16.40;99.90;;;;;;5080507;28;20851;-68
2023/09/04 02:12:41;;;;;;;3.20;2.65;;;16.30;99.90;;;;;;5062661;28;20186;-68
2023/09/04 02:15:07;;;;;;;4.25;2.40;;;16.30;99.90;;;;;;5083124;28;20228;-68
2023/09/04 02:17:33;;;;;;;3.33;2.45;;;16.40;99.90;;;;;;5082204;28;20203;-69
2023/09/04 02:20:00;;;;;;;4.57;2.28;;;16.30;99.90;;;;;;5083378;28;20237;-68
2023/09/04 02:22:26;;;;;;;2.55;2.13;;;16.30;99.90;;;;;;5080740;28;20267;-68
2023/09/04 02:24:52;;;;;;;4.57;2.60;;;16.30;99.90;;;;;;5060555;28;20262;-68
2023/09/04 02:27:18;;;;;;;3.67;2.13;;;16.40;99.90;;;;;;5081186;28;20297;-68
2023/09/04 02:29:43;;;;;;;2.47;2.28;;;16.30;99.90;;;;;;5084665;28;20210;-68
2023/09/04 02:32:09;;;;;;;3.55;2.35;;;16.40;99.90;;;;;;5077918;28;20214;-67
2023/09/04 02:34:35;;;;;;;5.18;2.45;;;16.30;99.90;;;;;;5064366;28;20241;-68
2023/09/04 02:37:00;;;;;;;3.17;2.20;;;16.30;99.90;;;;;;5079898;28;20174;-67
2023/09/04 02:39:26;;;;;;;3.10;2.15;;;16.30;99.90;;;;;;5083515;28;20190;-68
2023/09/04 02:41:51;;;;;;;3.00;2.70;;;16.20;99.90;;;;;;5063831;28;20588;-67
2023/09/04 02:44:17;;;;;;;4.43;2.58;;;16.30;99.90;;;;;;5081728;28;20199;-68
2023/09/04 02:46:43;;;;;;;2.30;2.10;;;16.20;99.90;;;;;;5082750;28;20198;-68
2023/09/04 02:49:08;;;;;;;3.50;2.33;;;16.30;99.90;;;;;;5080231;28;20194;-68
2023/09/04 02:51:34;;;;;;;2.67;2.28;;;16.30;99.90;;;;;;5063741;28;20174;-68
2023/09/04 02:53:59;;;;;;;4.38;2.83;;;16.30;99.90;;;;;;5081034;28;20210;-68
2023/09/04 02:56:25;;;;;;;2.80;2.20;;;16.30;99.90;;;;;;5058475;28;20199;-68
2023/09/04 02:58:51;;;;;;;3.35;2.53;;;16.30;99.90;;;;;;5084090;28;20210;-67
2023/09/04 03:01:16;;;;;;;5.72;2.38;;;16.20;99.90;;;;;;5080244;28;20226;-68
2023/09/04 03:03:42;;;;;;;3.45;2.17;;;16.20;99.90;;;;;;5083528;28;20179;-68
2023/09/04 03:06:11;;;;;;;3.42;2.40;;;16.20;99.90;;;;;;5080220;28;20303;-68
2023/09/04 03:08:38;;;;;;;4.07;2.70;;;16.20;99.90;;;;;;5082538;28;20241;-68
2023/09/04 03:11:10;;;;;;;3.60;2.65;;;16.20;99.90;;;;;;5080525;28;20190;-68
2023/09/04 03:13:39;;;;;;;3.25;2.50;;;16.20;99.90;;;;;;5081035;28;20221;-68
2023/09/04 03:16:05;;;;;;;4.97;2.75;;;16.20;99.90;;;;;;5079022;28;20175;-68
2023/09/04 03:18:35;;;;;;;2.88;2.25;;;16.10;99.90;;;;;;5083680;28;20198;-68
2023/09/04 03:21:01;;;;;;;5.47;2.42;;;16.20;99.90;;;;;;5080103;28;20206;-68
2023/09/04 03:23:27;;;;;;;4.45;2.47;;;16.20;99.90;;;;;;5082423;28;20565;-68
2023/09/04 03:25:53;;;;;;;4.15;2.45;;;16.10;99.90;;;;;;5061550;28;20294;-68
2023/09/04 03:28:18;;;;;;;4.25;2.58;;;16.10;99.90;;;;;;5080609;28;20668;-68
2023/09/04 03:30:44;;;;;;;3.25;2.42;;;16.10;99.90;;;;;;5082615;28;20250;-68
2023/09/04 03:33:09;;;;;;;5.90;2.97;;;16.10;99.90;;;;;;5081511;28;20228;-68
2023/09/04 03:35:35;;;;;;;4.05;2.45;;;16.00;99.90;;;;;;5081018;28;20209;-68
2023/09/04 03:38:01;;;;;;;4.88;2.97;;;16.00;99.90;;;;;;5082060;28;20283;-69
2023/09/04 03:40:29;;;;;;;4.40;2.53;;;16.00;99.90;;;;;;5077029;28;20214;-68
2023/09/04 03:42:55;;;;;;;3.67;2.60;;;16.10;99.90;;;;;;5065129;28;20184;-68
2023/09/04 03:45:21;;;;;;;4.43;2.20;;;16.10;99.90;;;;;;5079484;28;20207;-68
2023/09/04 03:47:47;;;;;;;3.42;2.42;;;16.00;99.90;;;;;;5082879;28;20742;-68
2023/09/04 03:50:13;;;;;;;2.83;2.10;;;15.90;99.90;;;;;;5076394;28;20207;-68
2023/09/04 03:52:40;;;;;;;5.55;2.22;;;15.90;99.90;;;;;;5064423;28;20842;-68
2023/09/04 03:55:07;;;;;;;5.35;2.67;;;15.90;99.90;;;;;;5080081;28;20182;-69
2023/09/04 03:57:35;;;;;;;5.35;2.85;;;15.90;99.90;;;;;;5082374;28;20181;-68
2023/09/04 04:00:01;;;;;;;4.70;2.28;;;15.90;99.90;;;;;;5061846;28;20720;-67
2023/09/04 04:02:27;;;;;;;3.67;2.70;;;15.80;99.90;;;;;;5078337;28;20226;-68
2023/09/04 04:04:52;;;;;;;4.80;3.15;;;15.80;99.90;;;;;;5081062;28;20209;-68
2023/09/04 04:07:18;;;;;;;5.45;2.50;;;15.80;99.90;;;;;;5078998;28;20229;-67
2023/09/04 04:09:47;;;;;;;5.75;2.63;;;15.80;99.90;;;;;;5077224;28;20661;-68
2023/09/04 04:12:13;;;;;;;3.50;2.78;;;15.80;99.90;;;;;;5053976;28;20339;-68
2023/09/04 04:14:39;;;;;;;4.53;2.80;;;15.80;99.90;;;;;;5080777;28;20688;-68
2023/09/04 04:17:05;;;;;;;3.38;2.60;;;15.80;99.90;;;;;;5081177;28;20264;-68
2023/09/04 04:19:30;;;;;;;6.95;3.00;;;15.80;99.90;;;;;;5052348;28;20238;-68
2023/09/04 04:21:56;;;;;;;3.95;2.67;;;15.80;99.90;;;;;;5081372;28;20255;-68
2023/09/04 04:24:22;;;;;;;3.95;2.67;;;15.80;99.90;;;;;;5079012;28;20252;-67
2023/09/04 04:26:47;;;;;;;3.60;3.00;;;15.80;99.90;;;;;;5082495;28;20281;-67
2023/09/04 04:29:13;;;;;;;6.70;2.90;;;15.70;99.90;;;;;;5078796;28;20693;-68
2023/09/04 04:31:39;;;;;;;9.63;3.90;;;15.80;99.90;;;;;;5081786;28;20238;-68
2023/09/04 04:34:04;;;;;;;6.63;3.78;;;15.80;99.90;;;;;;5079639;28;20755;-68
2023/09/04 04:36:30;;;;;;;3.30;2.67;;;15.80;99.90;;;;;;5063151;28;20189;-68
2023/09/04 04:38:56;;;;;;;4.25;2.60;;;16.00;99.90;;;;;;5080118;28;20202;-68
2023/09/04 04:41:21;;;;;;;5.43;2.85;;;15.90;99.90;;;;;;5077107;28;20239;-68
2023/09/04 04:43:47;;;;;;;3.78;2.83;;;16.00;99.90;;;;;;5080007;28;20228;-68
2023/09/04 04:46:15;;;;;;;4.68;3.17;;;16.10;99.90;;;;;;5079703;28;20185;-68
2023/09/04 04:48:40;;;;;;;3.65;3.17;;;16.10;99.90;;;;;;5079600;28;20187;-68
2023/09/04 04:51:07;;;;;;;3.72;2.95;;;16.10;99.90;;;;;;5079526;28;20229;-68
2023/09/04 04:53:33;;;;;;;5.75;3.00;;;16.10;99.90;;;;;;5078731;28;20218;-68
2023/09/04 04:56:00;;;;;;;3.47;2.75;;;16.10;99.90;;;;;;5082094;28;20689;-68
2023/09/04 04:58:25;;;;;;;4.47;2.85;;;16.10;99.90;;;;;;5077905;28;20217;-68
2023/09/04 05:00:51;;;;;;;4.90;3.45;;;16.20;99.90;;;;;;5064575;28;20206;-68
2023/09/04 05:03:16;;;;;;;3.78;3.00;;;16.40;99.90;;;;;;5060539;28;20670;-68
2023/09/04 05:05:46;;;;;;;4.38;3.25;;;16.30;99.90;;;;;;5063083;28;20571;-68
2023/09/04 05:08:12;;;;;;;3.70;3.00;;;16.30;99.90;;;;;;5078804;28;20218;-68
2023/09/04 05:10:37;;;;;;;4.68;3.30;;;16.40;99.90;;;;;;5081471;28;20681;-69
2023/09/04 05:13:03;;;;;;;5.10;3.58;;;16.40;99.90;;;;;;5081840;28;20170;-69
2023/09/04 05:15:29;;;;;;;6.22;3.55;;;16.50;99.90;;;;;;5080877;28;20175;-68
2023/09/04 05:17:54;;;;;;;7.30;3.85;;;16.60;99.90;;;;;;5079656;28;20646;-68
2023/09/04 05:20:21;;;;;;;5.90;3.53;;;16.90;99.90;;;;;;5081128;28;20202;-69
2023/09/04 05:22:46;;;;;;;3.13;2.75;;;17.60;99.90;;;;;;5075384;28;20228;-68
2023/09/04 05:25:12;;;;;;;4.32;2.70;;;18.80;99.90;;;;;;5085417;28;20254;-69
2023/09/04 05:27:38;;;;;;;4.03;2.95;;;18.90;99.90;;;;;;5064625;28;20206;-68
2023/09/04 05:30:04;;;;;;;5.00;2.85;;;19.60;99.90;;;;;;5086085;28;20205;-68
2023/09/04 05:32:30;;;;;;;4.10;2.63;;;22.00;99.90;;;;;;5080076;28;20289;-69
2023/09/04 05:34:56;;;;;;;3.22;2.38;;;23.80;99.90;;;;;;5085773;28;20305;-69
2023/09/04 05:37:22;;;;;;;4.80;2.95;;;25.70;99.90;;;;;;5081915;28;20298;-69
2023/09/04 05:39:48;;;;;;;3.58;2.88;;;27.30;99.90;;;;;;5067390;28;20198;-67
2023/09/04 05:42:13;;;;;;;4.72;2.85;;;27.70;99.90;;;;;;5082839;28;20222;-67
2023/09/04 05:44:39;;;;;;;3.33;3.00;;;28.30;99.90;;;;;;5066028;28;20521;-67
2023/09/04 05:47:05;;;;;;;6.00;3.10;;;28.30;99.90;;;;;;5082022;28;20275;-67
2023/09/04 05:49:30;;;;;;;5.43;3.38;;;28.10;99.90;;;;;;5082555;28;20249;-67
2023/09/04 05:51:56;;;;;;;6.18;3.15;;;28.30;99.90;;;;;;5077161;28;20273;-67
2023/09/04 05:54:23;;;;;;;5.75;3.35;;;28.60;99.90;;;;;;5075086;28;20691;-67
2023/09/04 05:56:49;;;;;;;5.55;3.55;;;29.00;99.90;;;;;;5056809;28;20340;-66
2023/09/04 05:59:15;;;;;;;4.05;2.97;;;29.30;99.90;;;;;;5076877;28;20565;-68
2023/09/04 06:01:40;;;;;;;4.65;2.95;;;30.00;99.90;;;;;;5081376;28;20506;-67
2023/09/04 06:04:06;;;;;;;5.82;3.53;;;29.90;99.90;;;;;;5085376;28;20252;-68
2023/09/04 06:06:32;;;;;;;5.90;3.75;;;29.90;99.90;;;;;;5082188;28;20244;-67
2023/09/04 06:08:57;;;;;;;8.35;6.00;;;30.50;99.90;;;;;;5066198;28;20298;-67
2023/09/04 06:11:23;;;;;;;5.78;3.55;;;30.20;99.90;;;;;;5082215;28;20304;-67
2023/09/04 06:13:49;;;;;;;9.25;3.67;;;31.00;99.90;;;;;;5083307;28;20323;-67
2023/09/04 06:16:18;;;;;;;4.57;3.28;;;31.30;99.90;;;;;;5082896;28;20178;-68
2023/09/04 06:18:44;;;;;;;3.45;3.15;;;31.50;99.90;;;;;;5065523;28;20193;-68
2023/09/04 06:21:09;;;;;;;4.72;3.42;;;31.10;99.90;;;;;;5081513;28;20292;-67
2023/09/04 06:23:35;;;;;;;7.68;3.90;;;31.30;99.90;;;;;;5082192;28;20564;-68
2023/09/04 06:26:04;;;;;;;7.55;3.97;;;31.60;99.90;;;;;;5084109;28;20219;-68
2023/09/04 06:28:30;;;;;;;9.23;5.10;;;31.40;99.70;;;;;;5081065;28;20298;-67
2023/09/04 06:30:56;;;;;;;6.22;3.92;;;32.40;98.80;;;;;;5062248;28;20719;-68
2023/09/04 06:33:24;;;;;;;5.10;3.92;;;32.80;97.80;;;;;;5083227;28;20213;-69
2023/09/04 06:35:49;;;;;;;4.10;2.92;;;33.60;96.10;;;;;;5069067;28;20213;-68
2023/09/04 06:38:15;;;;;;;4.10;3.00;;;32.60;95.70;;;;;;5075199;28;20202;-69
2023/09/04 06:40:42;;;;;;;4.10;3.28;;;32.30;96.00;;;;;;5077380;28;20696;-68
2023/09/04 06:43:08;;;;;;;3.33;2.90;;;33.00;95.30;;;;;;5075080;28;20186;-69
2023/09/04 06:45:36;;;;;;;5.00;3.00;;;33.30;94.30;;;;;;5076329;28;20236;-69
2023/09/04 06:48:02;;;;;;;4.82;3.30;;;33.10;94.10;;;;;;5060220;28;20213;-69
2023/09/04 06:50:28;;;;;;;3.58;3.28;;;33.00;93.90;;;;;;5057703;28;20258;-69
2023/09/04 06:52:53;;;;;;;7.03;4.13;;;32.40;94.20;;;;;;5063146;28;20202;-69
2023/09/04 06:55:19;;;;;;;4.32;3.30;;;32.30;94.60;;;;;;5083405;28;20267;-69
2023/09/04 06:57:44;;;;;;;4.55;3.60;;;32.80;93.80;;;;;;5074910;28;20665;-70
2023/09/04 07:00:11;;;;;;;4.68;3.05;;;32.70;93.80;;;;;;5062742;28;20217;-69
2023/09/04 07:02:37;;;;;;;4.15;2.85;;;33.20;93.70;;;;;;5062811;28;20297;-71
2023/09/04 07:05:04;;;;;;;5.20;2.88;;;33.40;93.30;;;;;;5083366;28;20301;-73
2023/09/04 07:07:31;;;;;;;3.20;2.78;;;33.30;92.90;;;;;;5059233;28;20206;-72
2023/09/04 07:09:57;;;;;;;6.85;3.45;;;34.00;92.40;;;;;;5058371;28;20199;-73
2023/09/04 07:12:22;;;;;;;4.50;3.72;;;33.90;91.70;;;;;;5068342;28;20592;-71
2023/09/04 07:14:48;;;;;;;4.30;3.33;;;33.70;91.40;;;;;;5068013;28;20221;-70
2023/09/04 07:17:13;;;;;;;5.15;3.20;;;33.60;91.40;;;;;;5049813;28;20734;-71
2023/09/04 07:19:39;;;;;;;5.80;5.20;;;33.70;91.20;;;;;;5050216;28;20212;-71
2023/09/04 07:22:05;;;;;;;4.97;4.20;;;33.80;91.20;;;;;;5052587;28;20206;-71
2023/09/04 07:24:30;;;;;;;3.92;2.83;;;34.00;90.60;;;;;;5071543;28;20167;-72
2023/09/04 07:26:56;;;;;;;4.70;3.13;;;34.90;89.30;;;;;;5052939;28;20650;-71
2023/09/04 07:29:22;;;;;;;2.95;2.65;;;35.10;87.60;;;;;;5061575;23;20240;-72
2023/09/04 07:31:47;;;;;;;3.35;2.47;;;35.20;86.60;;;;;;5041240;28;20214;-73
2023/09/04 07:34:13;;;;;;;2.90;2.28;;;34.90;86.00;;;;;;5059355;28;20177;-72
2023/09/04 07:36:38;;;;;;;4.93;3.35;;;34.40;87.30;;;;;;5062032;28;20170;-73
2023/09/04 07:39:04;;;;;;;3.17;2.45;;;34.40;86.70;;;;;;5063653;28;20211;-73
2023/09/04 07:41:30;;;;;;;2.60;2.35;;;34.70;86.10;;;;;;5061694;28;20233;-70
2023/09/04 07:43:56;;;;;;;5.35;3.20;;;35.30;85.20;;;;;;5066010;28;20582;-72
2023/09/04 07:46:21;;;;;;;3.88;2.95;;;35.50;83.90;;;;;;5046504;28;20210;-73
2023/09/04 07:48:47;;;;;;;2.25;2.05;;;35.60;83.20;;;;;;5062948;28;20286;-70
2023/09/04 07:51:13;;;;;;;4.07;2.03;;;34.90;84.40;;;;;;5057359;28;20211;-73
2023/09/04 07:53:38;;;;;;;2.88;1.83;;;34.50;84.90;;;;;;5058984;28;20195;-72
2023/09/04 07:56:04;;;;;;;1.92;1.83;;;34.90;85.10;;;;;;5060136;28;20238;-73
2023/09/04 07:58:29;;;;;;;2.40;2.05;;;35.40;83.50;;;;;;5061865;28;20248;-72
2023/09/04 08:00:55;;;;;;;2.50;1.60;;;35.10;83.20;;;;;;5061154;28;20195;-72
2023/09/04 08:03:25;;;;;;;2.25;1.77;;;35.10;84.10;;;;;;5061108;28;20237;-74
2023/09/04 08:05:51;;;;;;;3.20;2.00;;;34.30;83.70;;;;;;5046713;28;20211;-74
2023/09/04 08:08:17;;;;;;;2.50;2.20;;;34.10;84.60;;;;;;5047688;28;20720;-72
2023/09/04 08:10:44;;;;;;;2.35;1.60;;;33.80;85.40;;;;;;5041262;28;20703;-73
2023/09/04 08:13:11;;;;;;;3.78;1.70;;;33.30;87.00;;;;;;5047914;28;20182;-74
2023/09/04 08:15:37;;;;;;;2.45;1.60;;;33.90;86.90;;;;;;5047327;28;20189;-80
2023/09/04 08:18:05;;;;;;;2.42;1.95;;;33.80;86.80;;;;;;5056218;28;20202;-76
2023/09/04 08:20:30;;;;;;;2.88;1.58;;;33.80;86.00;;;;;;5056693;28;20221;-74
2023/09/04 08:22:56;;;;;;;2.45;1.70;;;33.40;87.40;;;;;;5060349;28;20592;-74
2023/09/04 08:25:22;;;;;;;2.67;1.35;;;33.40;87.20;;;;;;5058362;28;20265;-75
2023/09/04 08:27:47;;;;;;;3.33;1.73;;;33.50;87.30;;;;;;5047422;28;20684;-74
2023/09/04 08:30:13;;;;;;;2.65;1.80;;;33.60;86.70;;;;;;5041838;28;20213;-75
2023/09/04 08:32:38;;;;;;;3.33;1.48;;;33.20;88.00;;;;;;5061207;28;20618;-75
2023/09/04 08:35:05;;;;;;;3.28;1.58;;;33.00;87.10;;;;;;5048162;28;20735;-74
2023/09/04 08:37:31;;;;;;;1.92;1.60;;;33.30;86.80;;;;;;5060859;28;20199;-75
2023/09/04 08:39:56;;;;;;;3.88;1.60;;;32.70;87.30;;;;;;5059743;28;20196;-76
2023/09/04 08:42:22;;;;;;;1.92;1.52;;;32.40;87.90;;;;;;5047902;28;20739;-74
2023/09/04 08:44:50;;;;;;;1.73;1.45;;;32.60;88.70;;;;;;5041211;28;20210;-73
2023/09/04 08:47:19;;;;;;;2.92;1.52;;;32.80;88.10;;;;;;5061134;28;20209;-74
2023/09/04 08:49:45;;;;;;;1.60;1.50;;;33.10;87.70;;;;;;5061983;28;20222;-73
2023/09/04 08:52:13;;;;;;;2.58;1.45;;;33.00;86.90;;;;;;5055781;28;20198;-74
2023/09/04 08:54:39;;;;;;;4.00;1.52;;;32.70;87.30;;;;;;5054266;28;20210;-72
2023/09/04 08:57:04;;;;;;;2.00;1.40;;;32.30;87.90;;;;;;5062634;28;20280;-74
2023/09/04 08:59:30;;;;;;;2.60;1.50;;;32.40;88.80;;;;;;5041259;28;20216;-75
2023/09/04 09:01:56;;;;;;;1.75;1.40;;;32.60;87.90;;;;;;5060773;28;20228;-75
2023/09/04 09:04:22;;;;;;;3.33;1.50;;;32.00;90.10;;;;;;5046234;28;20242;-73
2023/09/04 09:06:52;;;;;;;1.88;1.30;;;32.20;90.40;;;;;;5045621;28;20180;-73
2023/09/04 09:09:20;;;;;;;2.90;1.60;;;31.90;90.20;;;;;;5058655;28;20215;-74
2023/09/04 09:11:53;;;;;;;3.67;1.67;;;31.70;90.40;;;;;;5047260;28;20199;-73
2023/09/04 09:14:26;;;;;;;3.35;1.50;;;31.70;90.90;;;;;;5055598;28;20234;-74
2023/09/04 09:17:02;;;;;;;2.40;1.65;;;31.40;91.40;;;;;;5057125;28;20290;-73
2023/09/04 09:19:32;;;;;;;4.75;2.13;;;31.10;91.70;;;;;;5060663;28;20203;-75
2023/09/04 09:22:09;;;;;;;1.98;1.40;;;30.90;92.20;;;;;;5057680;28;20208;-73
2023/09/04 09:24:59;;;;;;;2.95;1.52;;;30.80;92.60;;;;;;5047754;28;20174;-73
2023/09/04 09:27:30;;;;;;;4.05;1.85;;;30.80;92.90;;;;;;5058414;28;20578;-76
2023/09/04 09:29:57;;;;;;;3.67;1.60;;;30.60;93.00;;;;;;5059596;28;20222;-77
2023/09/04 09:32:26;;;;;;;4.28;1.85;;;30.60;93.30;;;;;;5063766;28;20226;-75
2023/09/04 09:34:53;;;;;;;5.15;3.63;;;30.00;93.10;;;;;;5042708;28;20210;-75
2023/09/04 09:37:20;;;;;;;5.53;2.47;;;30.10;93.70;;;;;;5041986;28;20204;-76
2023/09/04 09:39:46;;;;;;;3.17;2.58;;;29.80;93.20;;;;;;5062783;28;20195;-75
2023/09/04 09:42:12;;;;;;;5.97;2.92;;;29.50;94.20;;;;;;5061743;28;20218;-73
2023/09/04 09:44:38;;;;;;;4.25;2.55;;;29.60;94.40;;;;;;5058999;28;20708;-74
2023/09/04 09:47:07;;;;;;;3.08;2.13;;;29.40;94.30;;;;;;5043226;28;20194;-75
2023/09/04 09:49:35;;;;;;;4.40;1.88;;;29.10;94.70;;;;;;5040389;28;20215;-74
2023/09/04 09:52:01;;;;;;;3.17;2.10;;;29.10;95.40;;;;;;5044046;28;20187;-74
2023/09/04 09:54:33;;;;;;;3.38;1.88;;;29.10;95.60;;;;;;5062532;28;20180;-74
2023/09/04 09:57:00;;;;;;;13.25;6.90;;;29.00;95.20;;;;;;5044002;28;20207;-75
2023/09/04 09:59:30;;;;;;;5.55;3.05;;;29.10;95.80;;;;;;5060061;28;20215;-75
2023/09/04 10:01:56;;;;;;;3.80;2.42;;;29.00;95.20;;;;;;5059408;28;20211;-76
2023/09/04 10:04:24;;;;;;;2.72;1.88;;;28.80;95.90;;;;;;5068419;28;20704;-74
2023/09/04 10:06:52;;;;;;;5.70;2.60;;;28.80;96.20;;;;;;5067263;28;20187;-74
2023/09/04 10:09:23;;;;;;;5.05;2.63;;;28.80;96.00;;;;;;5062669;28;20709;-77
2023/09/04 10:11:59;;;;;;;4.18;1.95;;;29.20;96.10;;;;;;5046157;28;20298;-73
2023/09/04 10:14:32;;;;;;;2.78;1.90;;;29.20;96.00;;;;;;5061221;28;20620;-75
2023/09/04 10:17:01;;;;;;;2.75;1.90;;;29.40;95.30;;;;;;5062383;28;20203;-75
2023/09/04 10:19:33;;;;;;;6.00;3.25;;;29.20;94.90;;;;;;5063270;28;20676;-74
2023/09/04 10:22:04;;;;;;;4.38;2.47;;;29.30;95.10;;;;;;5059951;28;20204;-75
2023/09/04 10:25:02;;;;;;;11.27;4.13;;;29.10;95.40;;;;;;5059847;28;20191;-74
2023/09/04 10:27:32;;;;;;;4.25;2.75;;;29.00;95.80;;;;;;5044832;28;20238;-74
2023/09/04 10:30:09;;;;;;;3.92;2.03;;;29.10;95.60;;;;;;5061311;28;20221;-73
2023/09/04 10:32:36;;;;;;;3.90;1.90;;;29.10;95.70;;;;;;5048631;28;20708;-76
2023/09/04 10:35:02;;;;;;;1.73;1.63;;;28.30;95.60;;;;;;5062787;28;20202;-76
2023/09/04 10:37:30;;;;;;;3.45;1.98;;;28.40;96.00;;;;;;5046399;28;20289;-75
2023/09/04 10:39:57;;;;;;;1.95;1.50;;;28.30;96.20;;;;;;5061694;28;20221;-75
2023/09/04 10:42:27;;;;;;;2.53;1.80;;;28.60;96.50;;;;;;5061339;28;20191;-75
2023/09/04 10:44:53;;;;;;;1.88;1.58;;;28.50;96.20;;;;;;5046778;28;20203;-73
2023/09/04 10:47:20;;;;;;;2.75;1.85;;;28.40;96.80;;;;;;5062424;28;20627;-73
2023/09/04 10:49:47;;;;;;;2.92;1.85;;;28.30;96.60;;;;;;5063120;28;20207;-72
2023/09/04 10:52:13;;;;;;;3.83;2.10;;;28.20;96.60;;;;;;5065004;28;20179;-74
2023/09/04 10:54:40;;;;;;;6.90;2.33;;;28.30;97.10;;;;;;5063567;28;20175;-73
2023/09/04 10:57:10;;;;;;;4.28;2.13;;;28.30;97.20;;;;;;5044974;28;20302;-73
2023/09/04 10:59:57;;;;;;;3.67;2.03;;;27.90;96.90;;;;;;5064039;28;20713;-73
2023/09/04 11:02:33;;;;;;;3.85;3.20;;;27.70;97.70;;;;;;5062296;28;20217;-74
2023/09/04 11:05:01;;;;;;;3.03;1.98;;;27.30;98.10;;;;;;5059069;28;20686;-72
2023/09/04 11:07:32;;;;;;;4.25;2.03;;;27.30;98.30;;;;;;5062674;28;20713;-73
2023/09/04 11:10:06;;;;;;;3.55;1.75;;;27.60;98.40;;;;;;5058642;28;20198;-73
2023/09/04 11:12:37;;;;;;;4.55;2.00;;;27.90;98.30;;;;;;5061797;28;20271;-73
2023/09/04 11:15:15;;;;;;;3.25;2.13;;;27.90;98.80;;;;;;5043474;28;20204;-73
2023/09/04 11:17:45;;;;;;;5.53;3.10;;;28.30;98.60;;;;;;5059572;28;20629;-72
2023/09/04 11:20:14;;;;;;;3.67;1.55;;;28.40;98.20;;;;;;5061430;28;20211;-73
2023/09/04 11:22:47;;;;;;;3.05;1.60;;;28.20;97.50;;;;;;5061345;28;20589;-73
2023/09/04 11:25:14;;;;;;;1.80;1.67;;;28.20;97.80;;;;;;5062879;28;20198;-73
2023/09/04 11:27:42;;;;;;;3.10;1.80;;;28.40;98.20;;;;;;5062565;28;20184;-72
2023/09/04 11:30:08;;;;;;;2.33;1.63;;;28.10;96.90;;;;;;5062141;28;20211;-71
2023/09/04 11:32:36;;;;;;;3.47;2.03;;;28.20;97.80;;;;;;5051201;28;20206;-72
2023/09/04 11:35:03;;;;;;;3.03;1.75;;;28.30;97.80;;;;;;5050023;28;20203;-72
2023/09/04 11:37:32;;;;;;;3.50;1.80;;;28.30;97.40;;;;;;5062100;28;20301;-71
2023/09/04 11:40:01;;;;;;;1.73;1.63;;;28.20;97.50;;;;;;5044563;28;20578;-71
2023/09/04 11:42:27;;;;;;;2.47;1.50;;;28.20;97.90;;;;;;5061964;28;20290;-73
2023/09/04 11:44:53;;;;;;;3.15;1.88;;;28.10;97.80;;;;;;5044650;28;20206;-73
2023/09/04 11:47:21;;;;;;;2.13;1.83;;;28.20;97.50;;;;;;5058196;28;20698;-72
2023/09/04 11:49:46;;;;;;;3.60;2.33;;;28.00;97.00;;;;;;5059896;28;20206;-70
2023/09/04 11:52:14;;;;;;;4.47;1.98;;;27.80;97.70;;;;;;5059829;28;20179;-73
2023/09/04 11:54:40;;;;;;;3.25;2.10;;;28.00;98.00;;;;;;5045778;28;20645;-72
2023/09/04 11:57:09;;;;;;;3.08;1.85;;;28.10;97.80;;;;;;5063229;28;20215;-72
2023/09/04 11:59:40;;;;;;;3.25;1.55;;;28.20;97.60;;;;;;5060468;28;20349;-72
2023/09/04 12:02:07;;;;;;;2.47;1.90;;;28.20;97.70;;;;;;5057526;28;20222;-74
2023/09/04 12:04:34;;;;;;;1.83;1.52;;;28.10;97.60;;;;;;5056108;28;20229;-74
2023/09/04 12:07:04;;;;;;;2.25;1.52;;;27.90;97.10;;;;;;5041207;28;20175;-74
2023/09/04 12:09:31;;;;;;;2.38;2.15;;;27.90;97.40;;;;;;5056288;28;20192;-75
2023/09/04 12:11:57;;;;;;;2.15;1.83;;;27.90;96.90;;;;;;5059695;28;20587;-72
2023/09/04 12:14:23;;;;;;;3.88;2.97;;;27.70;96.90;;;;;;5059094;28;20221;-75
2023/09/04 12:16:49;;;;;;;3.28;2.53;;;27.50;97.30;;;;;;5061015;28;20207;-70
2023/09/04 12:19:16;;;;;;;3.38;2.08;;;27.50;97.10;;;;;;5061631;28;20222;-72
2023/09/04 12:21:42;;;;;;;5.07;3.50;;;27.30;97.60;;;;;;5044625;28;20206;-74
2023/09/04 12:24:12;;;;;;;3.15;2.40;;;27.00;97.60;;;;;;5048168;28;20199;-72
2023/09/04 12:26:38;;;;;;;3.67;2.33;;;26.70;98.10;;;;;;5059161;28;20211;-72
2023/09/04 12:29:04;;;;;;;5.35;1.75;;;26.70;98.40;;;;;;5037980;28;20207;-72
2023/09/04 12:31:30;;;;;;;4.05;1.58;;;26.40;98.40;;;;;;5059218;28;20257;-73
2023/09/04 12:33:56;;;;;;;2.40;1.90;;;26.60;99.30;;;;;;5061341;28;20202;-73
2023/09/04 12:36:21;;;;;;;3.15;2.35;;;26.70;99.30;;;;;;5052104;28;20195;-72
2023/09/04 12:38:47;;;;;;;3.30;2.42;;;26.90;99.60;;;;;;5061421;28;20203;-71
2023/09/04 12:41:13;;;;;;;2.28;1.88;;;26.90;99.10;;;;;;5058562;28;20327;-75
2023/09/04 12:43:38;;;;;;;4.40;2.10;;;26.90;99.20;;;;;;5060379;28;20240;-74
2023/09/04 12:46:04;;;;;;;2.92;2.20;;;27.00;99.60;;;;;;5062387;28;20244;-74